CST,Max TemperatureF,Mean TemperatureF,Min TemperatureF,Max Dew PointF,MeanDew PointF,Min DewpointF,Max Humidity, Mean Humidity, Min Humidity, Max Sea Level PressureIn, Mean Sea Level PressureIn, Min Sea Level PressureIn, Max VisibilityMiles, Mean VisibilityMiles, Min VisibilityMiles, Max Wind SpeedMPH, Mean Wind SpeedMPH, Max Gust SpeedMPH,PrecipitationIn, CloudCover, Events, WindDirDegrees
2013-1-1,20,13,6,12,7,3,88,78,67,30.30,30.25,30.16,10,10,8,14,6,17,0.00,2,,318
2013-1-2,28,16,3,19,10,0,91,75,58,30.28,30.21,30.15,10,10,8,15,9,17,0.00,1,,207
2013-1-3,34,24,14,25,20,9,88,76,64,30.41,30.31,30.17,10,9,6,20,8,23,0.00,6,,282
2013-1-4,34,22,10,23,16,7,87,75,61,30.40,30.35,30.28,10,10,8,18,8,22,0.00,0,,226
2013-1-5,37,30,23,32,27,17,89,82,74,30.27,30.16,30.04,10,9,1,17,11,23,0.01,6,Rain-Snow,212
2013-1-6,36,28,20,24,19,16,84,71,58,30.37,30.25,30.08,10,9,6,23,11,31,0.00,3,,279
2013-1-7,43,32,21,27,22,17,84,69,53,30.36,30.23,30.11,10,10,10,17,10,23,0.00,0,,183
2013-1-8,47,39,31,29,26,23,72,59,45,30.15,30.10,30.04,10,10,10,14,9,17,0.00,1,,193
2013-1-9,50,41,32,34,31,27,82,67,52,30.49,30.37,30.15,10,10,10,13,7,17,0.00,0,,276
2013-1-10,44,39,33,45,38,23,100,73,46,30.45,30.00,29.74,10,4,0,20,11,24,0.36,7,Fog-Rain,120
2013-1-11,59,51,43,48,45,43,100,81,62,29.80,29.74,29.67,10,6,0,23,14,32,T,4,Fog,191
2013-1-12,55,40,24,45,27,20,92,69,46,30.03,29.94,29.71,10,7,1,22,13,28,0.09,6,Rain-Snow,327
2013-1-13,24,19,13,18,11,7,81,72,62,30.37,30.16,29.98,10,10,8,20,11,23,0.01,5,,320
2013-1-14,25,17,9,10,8,5,83,68,52,30.53,30.47,30.40,10,10,10,8,4,9,0.00,0,,343
2013-1-15,28,19,10,16,11,5,83,67,50,30.45,30.34,30.14,10,10,10,8,3,12,0.00,1,,73
2013-1-16,40,27,13,24,17,9,80,62,44,30.18,30.08,29.95,10,10,10,21,10,26,0.00,1,,232
2013-1-17,36,31,25,28,21,15,92,70,47,30.47,30.36,30.15,10,10,10,17,8,21,0.00,1,,326
2013-1-18,50,37,23,30,25,18,75,59,42,30.47,30.23,30.04,10,10,10,24,15,32,0.00,0,,200
2013-1-19,55,46,37,36,31,21,70,60,50,30.15,29.99,29.88,10,10,10,30,15,38,0.00,0,,243
2013-1-20,37,27,16,19,9,5,74,62,50,30.38,30.34,30.19,10,10,10,26,11,36,0.00,3,,332
2013-1-21,16,13,9,7,-1,-7,76,58,40,30.43,30.39,30.34,10,10,10,28,14,33,0.00,0,,310
2013-1-22,16,11,5,3,-2,-6,69,58,46,30.52,30.43,30.38,10,10,10,14,5,17,0.00,6,,323
2013-1-23,38,24,10,19,11,3,76,60,44,30.44,30.29,30.14,10,10,10,22,10,28,0.00,0,,277
2013-1-24,24,17,10,8,3,-1,66,53,39,30.65,30.49,30.26,10,10,10,22,13,26,0.00,1,,92
2013-1-25,41,33,24,21,13,8,69,53,37,30.27,30.17,30.10,10,10,10,17,9,22,0.00,4,,229
2013-1-26,36,24,12,16,11,6,76,56,35,30.42,30.34,30.29,10,10,10,15,7,18,0.00,0,,95
2013-1-27,49,38,26,46,32,16,93,76,58,30.27,30.02,29.85,10,5,2,23,13,30,0.14,7,Rain-Thunderstorm,152
2013-1-28,66,57,48,58,53,48,93,83,73,29.92,29.85,29.75,10,9,5,18,9,25,T,6,Rain-Thunderstorm,176
2013-1-29,63,51,38,57,53,39,100,89,78,29.73,29.56,29.44,10,5,0,25,9,32,2.12,7,Fog-Rain-Thunderstorm,203
2013-1-30,38,31,23,36,26,13,100,84,68,29.89,29.55,29.34,10,7,1,36,18,45,0.20,8,Rain-Snow,311
2013-1-31,25,16,6,16,6,-4,73,65,56,30.39,30.12,29.87,10,9,2,29,18,37,T,7,Snow,296